createdAt,value
2019-03-23T00:00:13.590Z,3.03
2019-03-23T00:03:19.534Z,4.50
2019-03-23T00:06:30.730Z,3.33
2019-03-23T00:09:29.190Z,3.10
2019-03-23T00:12:33.347Z,3.03
2019-03-23T00:15:37.753Z,3.00
2019-03-23T00:18:41.445Z,3.50
2019-03-23T00:21:45.200Z,3.67
2019-03-23T00:24:49.788Z,3.20
2019-03-23T00:27:54.192Z,3.40
2019-03-23T00:30:57.914Z,2.67
2019-03-23T00:34:01.622Z,3.97
2019-03-23T00:37:07.270Z,3.57
2019-03-23T00:40:12.767Z,3.43
2019-03-23T00:43:16.471Z,3.47
2019-03-23T00:46:20.644Z,3.13
2019-03-23T00:49:24.439Z,4.23
2019-03-23T00:52:28.562Z,3.47
2019-03-23T00:55:32.300Z,3.63
2019-03-23T00:58:36.006Z,3.00
2019-03-23T01:01:40.199Z,4.70
2019-03-23T01:04:44.655Z,6.43
2019-03-23T01:07:48.509Z,4.73
2019-03-23T01:10:52.991Z,7.37
2019-03-23T01:13:57.050Z,6.50
2019-03-23T01:17:02.486Z,6.87
2019-03-23T01:20:07.836Z,7.27
2019-03-23T01:23:11.824Z,6.90
2019-03-23T01:26:17.210Z,5.70
2019-03-23T01:29:20.962Z,5.07
2019-03-23T01:32:26.160Z,5.73
2019-03-23T01:35:29.876Z,6.07
2019-03-23T01:38:34.560Z,4.50
2019-03-23T01:41:38.303Z,6.37
2019-03-23T01:44:42.002Z,9.13
2019-03-23T01:47:45.719Z,9.90
2019-03-23T01:50:49.443Z,9.97
2019-03-23T01:53:53.503Z,17.03
2019-03-23T01:56:57.238Z,15.43
2019-03-23T02:00:01.330Z,17.80
2019-03-23T02:03:05.279Z,19.60
2019-03-23T02:06:09.007Z,21.23
2019-03-23T02:09:12.719Z,19.30
2019-03-23T02:12:16.761Z,21.40
2019-03-23T02:15:20.464Z,22.27
2019-03-23T02:18:24.558Z,21.80
2019-03-23T02:21:29.487Z,23.87
2019-03-23T02:24:33.525Z,24.73
2019-03-23T02:27:37.267Z,23.90
2019-03-23T02:30:41.733Z,24.37
2019-03-23T02:33:45.440Z,23.67
2019-03-23T02:36:50.045Z,23.90
2019-03-23T02:39:54.131Z,26.13
2019-03-23T02:42:59.629Z,23.93
2019-03-23T02:46:03.354Z,23.77
2019-03-23T02:49:07.066Z,24.63
2019-03-23T02:52:11.165Z,25.20
2019-03-23T02:55:14.863Z,27.93
2019-03-23T02:58:19.605Z,23.37
2019-03-23T03:01:24.198Z,23.00
2019-03-23T03:04:29.876Z,23.27
2019-03-23T03:07:41.790Z,23.47
2019-03-23T03:10:40.912Z,23.50
2019-03-23T03:13:44.642Z,28.80
2019-03-23T03:16:48.687Z,22.97
2019-03-23T03:19:53.109Z,25.37
2019-03-23T03:22:57.663Z,26.90
2019-03-23T03:26:02.929Z,28.00
2019-03-23T03:29:06.630Z,24.40
2019-03-23T03:32:10.360Z,26.47
2019-03-23T03:35:15.221Z,27.60
2019-03-23T03:38:19.699Z,27.67
2019-03-23T03:41:23.412Z,28.67
2019-03-23T03:44:27.121Z,29.30
2019-03-23T03:47:30.845Z,31.17
2019-03-23T03:50:34.552Z,32.60
2019-03-23T03:53:38.633Z,35.07
2019-03-23T03:56:43.410Z,34.53
2019-03-23T03:59:47.107Z,35.77
2019-03-23T04:02:51.626Z,35.17
2019-03-23T04:05:55.648Z,35.50
2019-03-23T04:09:00.558Z,33.77
2019-03-23T04:12:04.610Z,36.17
2019-03-23T04:15:09.254Z,36.40
2019-03-23T04:18:12.973Z,37.20
2019-03-23T04:21:16.738Z,35.10
2019-03-23T04:24:20.858Z,31.90
2019-03-23T04:27:24.588Z,32.40
2019-03-23T04:30:29.285Z,32.30
2019-03-23T04:33:33.854Z,35.40
2019-03-23T04:36:38.357Z,33.30
2019-03-23T04:39:42.062Z,36.57
2019-03-23T04:42:45.883Z,34.53
2019-03-23T04:45:50.006Z,35.40
2019-03-23T04:48:53.729Z,35.00
2019-03-23T04:51:58.472Z,34.80
2019-03-23T04:55:02.196Z,39.70
2019-03-23T04:58:06.394Z,37.23
2019-03-23T05:01:10.740Z,37.07
2019-03-23T05:04:15.249Z,39.73
2019-03-23T05:07:18.980Z,37.33
2019-03-23T05:10:23.392Z,34.67
2019-03-23T05:13:27.984Z,33.40
2019-03-23T05:16:31.704Z,35.10
2019-03-23T05:19:36.155Z,34.97
2019-03-23T05:22:39.977Z,33.23
2019-03-23T05:25:44.103Z,34.10
2019-03-23T05:28:49.207Z,35.17
2019-03-23T05:31:53.284Z,38.00
2019-03-23T05:34:57.342Z,36.37
2019-03-23T05:38:01.064Z,34.70
2019-03-23T05:41:05.678Z,38.30
2019-03-23T05:44:09.410Z,37.23
2019-03-23T05:47:13.530Z,33.80
2019-03-23T05:50:17.242Z,34.13
2019-03-23T05:53:20.974Z,33.70
2019-03-23T05:56:25.474Z,30.50
2019-03-23T05:59:29.200Z,31.63
2019-03-23T06:02:32.942Z,31.20
2019-03-23T06:05:37.386Z,32.43
2019-03-23T06:08:42.788Z,29.43
2019-03-23T06:11:46.510Z,31.07
2019-03-23T06:14:50.218Z,30.60
2019-03-23T06:17:53.926Z,30.10
2019-03-23T06:20:57.919Z,30.77
2019-03-23T06:24:01.663Z,27.77
2019-03-23T06:27:06.974Z,31.70
2019-03-23T06:30:11.450Z,31.00
2019-03-23T06:33:15.186Z,32.27
2019-03-23T06:36:18.892Z,31.10
2019-03-23T06:39:22.620Z,32.50
2019-03-23T06:42:27.450Z,30.67
2019-03-23T06:45:31.162Z,34.10
2019-03-23T06:48:35.177Z,30.90
2019-03-23T06:51:38.876Z,33.50
2019-03-23T06:54:42.616Z,30.93
2019-03-23T06:57:46.359Z,30.37
2019-03-23T07:00:50.072Z,31.90
2019-03-23T07:03:54.656Z,32.70
2019-03-23T07:06:58.385Z,30.17
2019-03-23T07:10:02.214Z,31.50
2019-03-23T07:13:06.841Z,32.60
2019-03-23T07:16:10.919Z,32.53
2019-03-23T07:19:14.991Z,30.97
2019-03-23T07:22:18.719Z,33.77
2019-03-23T07:25:22.443Z,34.40
2019-03-23T07:28:26.931Z,33.10
2019-03-23T07:31:30.640Z,32.90
2019-03-23T07:34:35.776Z,32.27
2019-03-23T07:37:40.912Z,33.60
2019-03-23T07:40:44.636Z,32.80
2019-03-23T07:43:48.354Z,35.90
2019-03-23T07:46:52.054Z,34.40
2019-03-23T07:49:56.552Z,35.80
2019-03-23T07:53:00.571Z,36.13
2019-03-23T07:56:04.791Z,35.47
2019-03-23T07:59:08.544Z,34.07
2019-03-23T08:02:12.606Z,35.50
2019-03-23T08:05:16.599Z,35.53
2019-03-23T08:08:21.851Z,29.90
2019-03-23T08:11:26.332Z,31.87
2019-03-23T08:14:31.482Z,31.43
2019-03-23T08:17:36.564Z,31.00
2019-03-23T08:20:40.672Z,34.67
2019-03-23T08:23:44.931Z,29.50
2019-03-23T08:26:49.135Z,34.17
2019-03-23T08:29:54.689Z,31.80
2019-03-23T08:32:58.423Z,34.67
2019-03-23T08:36:02.209Z,32.80
2019-03-23T08:39:07.918Z,32.77
2019-03-23T08:42:11.940Z,32.33
2019-03-23T08:45:15.928Z,33.43
2019-03-23T08:48:22.807Z,32.83
2019-03-23T08:51:26.860Z,32.63
2019-03-23T08:54:31.673Z,39.37
2019-03-23T08:57:36.990Z,32.83
2019-03-23T09:00:41.167Z,34.07
2019-03-23T09:03:52.401Z,37.10
2019-03-23T09:06:50.899Z,37.10
2019-03-23T09:09:59.440Z,34.47
2019-03-23T09:13:00.809Z,34.50
2019-03-23T09:16:04.525Z,33.70
2019-03-23T09:19:09.792Z,35.50
2019-03-23T09:22:13.887Z,28.93
2019-03-23T09:25:17.945Z,32.10
2019-03-23T09:28:21.786Z,31.30
2019-03-23T09:31:25.899Z,32.23
2019-03-23T09:34:30.071Z,34.10
2019-03-23T09:37:38.299Z,33.80
2019-03-23T09:40:41.195Z,32.33
2019-03-23T09:43:45.192Z,30.37
2019-03-23T09:46:48.902Z,31.13
2019-03-23T09:49:54.343Z,33.00
2019-03-23T09:52:58.071Z,32.40
2019-03-23T09:56:02.900Z,33.93
2019-03-23T09:59:08.634Z,33.50
2019-03-23T10:02:12.669Z,31.40
2019-03-23T10:05:16.402Z,33.37
2019-03-23T10:08:21.441Z,28.90
2019-03-23T10:11:25.624Z,34.67
2019-03-23T10:14:29.702Z,30.47
2019-03-23T10:17:33.423Z,35.07
2019-03-23T10:20:39.223Z,33.87
2019-03-23T10:23:43.359Z,35.70
2019-03-23T10:26:47.087Z,30.67
2019-03-23T10:29:52.713Z,32.00
2019-03-23T10:32:56.880Z,30.77
2019-03-23T10:36:00.619Z,35.00
2019-03-23T10:39:05.669Z,33.00
2019-03-23T10:42:09.726Z,32.90
2019-03-23T10:45:13.855Z,28.97
2019-03-23T10:48:18.259Z,37.23
2019-03-23T10:51:22.377Z,32.13
2019-03-23T10:54:26.113Z,32.60
2019-03-23T10:57:30.696Z,32.90
2019-03-23T11:00:34.904Z,35.63
2019-03-23T11:03:38.740Z,33.60
2019-03-23T11:06:43.246Z,34.77
2019-03-23T11:09:46.962Z,35.33
2019-03-23T11:12:52.140Z,33.37
2019-03-23T11:15:56.255Z,32.50
2019-03-23T11:18:59.976Z,33.07
2019-03-23T11:22:04.431Z,32.80
2019-03-23T11:25:11.835Z,28.67
2019-03-23T11:28:15.875Z,31.40
2019-03-23T11:31:19.970Z,27.97
2019-03-23T11:34:23.688Z,28.80
2019-03-23T11:37:27.797Z,31.83
2019-03-23T11:40:32.818Z,30.20
2019-03-23T11:43:36.517Z,25.50
2019-03-23T11:46:40.336Z,28.57
2019-03-23T11:49:45.499Z,27.83
2019-03-23T11:52:49.249Z,26.30
2019-03-23T11:55:52.980Z,25.73
2019-03-23T11:58:58.295Z,28.50
2019-03-23T12:02:03.619Z,28.30
2019-03-23T12:05:08.440Z,26.00
2019-03-23T12:08:12.833Z,24.67
2019-03-23T12:11:16.622Z,23.90
2019-03-23T12:14:21.068Z,24.40
2019-03-23T12:17:26.491Z,24.23
2019-03-23T12:20:30.188Z,26.27
2019-03-23T12:23:33.928Z,25.50
2019-03-23T12:26:38.024Z,24.27
2019-03-23T12:29:41.770Z,25.30
2019-03-23T12:32:45.565Z,20.77
2019-03-23T12:35:49.373Z,20.13
2019-03-23T12:38:53.771Z,21.83
2019-03-23T12:41:57.867Z,20.07
2019-03-23T12:45:01.578Z,19.57
2019-03-23T12:48:05.999Z,19.10
2019-03-23T12:51:10.107Z,21.10
2019-03-23T12:54:13.837Z,19.83
2019-03-23T12:57:18.859Z,19.20
2019-03-23T13:00:22.632Z,21.10
2019-03-23T13:03:26.378Z,19.90
2019-03-23T13:06:30.408Z,18.47
2019-03-23T13:09:35.540Z,19.70
2019-03-23T13:12:39.698Z,18.90
2019-03-23T13:15:43.768Z,19.43
2019-03-23T13:18:47.859Z,21.00
2019-03-23T13:21:51.878Z,19.23
2019-03-23T13:24:56.018Z,17.70
2019-03-23T13:28:00.439Z,19.53
2019-03-23T13:31:04.188Z,17.63
2019-03-23T13:34:09.051Z,19.20
2019-03-23T13:37:13.213Z,18.57
2019-03-23T13:40:16.919Z,19.17
2019-03-23T13:43:21.075Z,19.40
2019-03-23T13:46:25.193Z,18.13
2019-03-23T13:49:28.898Z,19.80
2019-03-23T13:52:33.824Z,19.40
2019-03-23T13:55:37.540Z,19.20
2019-03-23T13:58:41.261Z,19.00
2019-03-23T14:01:45.044Z,16.70
2019-03-23T14:04:50.280Z,16.97
2019-03-23T14:07:54.244Z,16.90
2019-03-23T14:10:57.974Z,18.23
2019-03-23T14:14:01.704Z,17.30
2019-03-23T14:17:05.430Z,17.67
2019-03-23T14:20:09.734Z,18.20
2019-03-23T14:23:13.849Z,15.67
2019-03-23T14:26:17.590Z,16.47
2019-03-23T14:29:21.298Z,16.80
2019-03-23T14:32:26.832Z,17.17
2019-03-23T14:35:30.540Z,16.37
2019-03-23T14:38:35.029Z,17.77
2019-03-23T14:41:38.768Z,17.47
2019-03-23T14:44:43.207Z,16.97
2019-03-23T14:47:47.326Z,18.17
2019-03-23T14:50:51.023Z,17.33
2019-03-23T14:53:54.804Z,16.70
2019-03-23T14:56:58.896Z,17.47
2019-03-23T15:00:02.829Z,15.47
2019-03-23T15:03:06.885Z,17.40
2019-03-23T15:06:10.613Z,18.60
2019-03-23T15:09:14.340Z,20.93
2019-03-23T15:12:18.060Z,16.57
2019-03-23T15:15:21.791Z,19.37
2019-03-23T15:18:25.508Z,19.37
2019-03-23T15:21:29.212Z,17.50
2019-03-23T15:24:32.929Z,18.43
2019-03-23T15:27:36.660Z,18.50
2019-03-23T15:30:41.121Z,18.17
2019-03-23T15:33:44.947Z,19.00
2019-03-23T15:36:48.655Z,17.20
2019-03-23T15:39:54.820Z,18.60
2019-03-23T15:42:58.527Z,18.57
2019-03-23T15:46:02.293Z,17.80
2019-03-23T15:49:07.776Z,19.07
2019-03-23T15:52:13.032Z,19.03
2019-03-23T15:55:17.131Z,17.80
2019-03-23T15:58:21.879Z,17.53
2019-03-23T16:01:26.039Z,20.87
2019-03-23T16:04:30.561Z,19.57
2019-03-23T16:07:34.274Z,20.67
2019-03-23T16:10:38.396Z,20.07
2019-03-23T16:13:42.490Z,19.40
2019-03-23T16:16:46.967Z,19.77
2019-03-23T16:19:51.471Z,20.40
2019-03-23T16:22:55.199Z,20.13
2019-03-23T16:25:58.937Z,18.07
2019-03-23T16:29:02.738Z,21.30
2019-03-23T16:32:06.506Z,20.37
2019-03-23T16:35:11.629Z,18.10
2019-03-23T16:38:15.664Z,19.20
2019-03-23T16:41:19.684Z,20.67
2019-03-23T16:44:23.838Z,21.77
2019-03-23T16:47:28.626Z,21.93
2019-03-23T16:50:32.343Z,22.00
2019-03-23T16:53:36.503Z,20.93
2019-03-23T16:56:41.041Z,21.80
2019-03-23T16:59:45.131Z,22.20
2019-03-23T17:02:49.609Z,21.60
2019-03-23T17:05:53.623Z,22.13
2019-03-23T17:08:57.691Z,21.87
2019-03-23T17:12:01.752Z,23.60
2019-03-23T17:15:07.226Z,28.80
2019-03-23T17:18:11.588Z,22.90
2019-03-23T17:21:15.607Z,22.53
2019-03-23T17:24:20.526Z,21.17
2019-03-23T17:27:24.575Z,19.00
2019-03-23T17:30:28.382Z,18.73
2019-03-23T17:33:32.399Z,20.03
2019-03-23T17:36:36.570Z,20.57
2019-03-23T17:39:40.668Z,20.47
2019-03-23T17:42:44.405Z,19.93
2019-03-23T17:45:48.451Z,19.83
2019-03-23T17:48:54.920Z,20.33
2019-03-23T17:51:59.438Z,22.30
2019-03-23T17:55:03.251Z,18.97
2019-03-23T17:58:08.222Z,19.00
2019-03-23T18:01:19.273Z,19.20
2019-03-23T18:04:20.796Z,20.83
2019-03-23T18:07:25.958Z,18.83
2019-03-23T18:10:30.114Z,19.37
2019-03-23T18:13:34.248Z,22.43
2019-03-23T18:16:38.336Z,20.50
2019-03-23T18:19:42.427Z,20.73
2019-03-23T18:22:46.140Z,21.20
2019-03-23T18:25:49.857Z,21.80
2019-03-23T18:28:55.220Z,21.63
2019-03-23T18:31:58.974Z,21.03
2019-03-23T18:35:03.351Z,23.97
2019-03-23T18:38:07.583Z,21.40
2019-03-23T18:41:11.651Z,20.77
2019-03-23T18:44:16.336Z,21.60
2019-03-23T18:47:21.180Z,19.40
2019-03-23T18:50:24.891Z,20.63
2019-03-23T18:53:29.488Z,21.50
2019-03-23T18:56:33.218Z,18.10
2019-03-23T18:59:37.384Z,22.27
2019-03-23T19:02:41.133Z,16.30
2019-03-23T19:05:45.931Z,17.63
2019-03-23T19:08:50.003Z,15.87
2019-03-23T19:11:54.007Z,15.17
2019-03-23T19:14:57.712Z,11.60
2019-03-23T19:18:01.829Z,13.17
2019-03-23T19:21:05.535Z,13.03
2019-03-23T19:24:09.586Z,10.77
2019-03-23T19:27:15.549Z,9.70
2019-03-23T19:30:19.914Z,9.10
2019-03-23T19:33:24.060Z,7.33
2019-03-23T19:36:28.160Z,8.10
2019-03-23T19:39:31.888Z,8.00
2019-03-23T19:42:37.514Z,9.00
2019-03-23T19:45:42.342Z,7.60
2019-03-23T19:48:47.693Z,9.60
2019-03-23T19:51:51.410Z,8.87
2019-03-23T19:54:55.543Z,9.60
2019-03-23T19:57:59.695Z,9.13
2019-03-23T20:01:03.411Z,8.63
2019-03-23T20:04:07.852Z,10.10
2019-03-23T20:07:11.601Z,9.77
2019-03-23T20:10:16.811Z,10.67
2019-03-23T20:13:21.220Z,11.47
2019-03-23T20:16:24.937Z,9.37
2019-03-23T20:19:31.606Z,9.57
2019-03-23T20:22:35.726Z,9.93
2019-03-23T20:25:39.924Z,10.20
2019-03-23T20:28:43.870Z,10.37
2019-03-23T20:31:47.959Z,10.53
2019-03-23T20:34:52.647Z,9.27
2019-03-23T20:37:57.164Z,9.83
2019-03-23T20:41:01.274Z,9.33
2019-03-23T20:44:09.563Z,8.60
2019-03-23T20:47:11.647Z,9.90
2019-03-23T20:50:15.716Z,11.23
2019-03-23T20:53:19.741Z,10.00
2019-03-23T20:56:23.805Z,9.10
2019-03-23T20:59:28.229Z,10.50
2019-03-23T21:02:32.449Z,9.10
2019-03-23T21:05:36.156Z,11.00
2019-03-23T21:08:40.963Z,8.47
2019-03-23T21:11:44.678Z,9.97
2019-03-23T21:14:49.402Z,10.33
2019-03-23T21:17:55.614Z,7.57
2019-03-23T21:20:59.319Z,8.23
2019-03-23T21:24:03.459Z,7.27
2019-03-23T21:27:07.592Z,7.10
2019-03-23T21:30:13.553Z,6.60
2019-03-23T21:33:17.685Z,6.00
2019-03-23T21:36:21.382Z,5.53
2019-03-23T21:39:25.571Z,5.40
2019-03-23T21:42:30.485Z,5.10
2019-03-23T21:45:34.198Z,5.27
2019-03-23T21:48:38.252Z,4.83
2019-03-23T21:51:42.304Z,6.20
2019-03-23T21:54:46.337Z,5.47
2019-03-23T21:57:50.451Z,5.43
2019-03-23T22:00:54.279Z,5.10
2019-03-23T22:03:58.017Z,4.63
2019-03-23T22:07:01.742Z,4.97
2019-03-23T22:10:06.647Z,4.70
2019-03-23T22:13:12.367Z,4.57
2019-03-23T22:16:16.383Z,4.17
2019-03-23T22:19:20.109Z,4.80
2019-03-23T22:22:24.194Z,5.20
2019-03-23T22:25:28.227Z,5.27
2019-03-23T22:28:32.254Z,4.67
2019-03-23T22:31:36.355Z,4.40
2019-03-23T22:34:40.486Z,4.50
2019-03-23T22:37:44.643Z,3.60
2019-03-23T22:40:48.354Z,3.90
2019-03-23T22:43:52.086Z,3.50
2019-03-23T22:46:55.795Z,3.23
2019-03-23T22:50:01.649Z,3.37
2019-03-23T22:53:07.191Z,4.10
2019-03-23T22:56:11.245Z,4.50
2019-03-23T22:59:15.499Z,3.93
2019-03-23T23:02:19.446Z,4.47
2019-03-23T23:05:23.164Z,4.53
2019-03-23T23:08:26.871Z,4.17
2019-03-23T23:11:30.591Z,3.80
2019-03-23T23:14:34.722Z,3.80
2019-03-23T23:17:38.589Z,2.97
2019-03-23T23:20:42.727Z,3.10
2019-03-23T23:23:46.449Z,2.73
2019-03-23T23:26:50.541Z,3.33
2019-03-23T23:29:54.679Z,5.23
2019-03-23T23:32:58.605Z,3.90
2019-03-23T23:36:02.528Z,4.83
2019-03-23T23:39:07.704Z,4.17
2019-03-23T23:42:12.270Z,4.40
2019-03-23T23:45:16.616Z,4.80
2019-03-23T23:48:20.688Z,5.27
2019-03-23T23:51:25.167Z,4.70
2019-03-23T23:54:28.896Z,4.27
2019-03-23T23:57:34.503Z,4.83
